sensor_id;sensor_type;location;lat;lon;timestamp;P1;durP1;ratioP1;P2;durP2;ratioP2
43994;SDS011;51687;52.160;5.298;2024-02-04T00:02:22;10.48;;;7.55;;
43994;SDS011;51687;52.160;5.298;2024-02-04T00:07:18;9.55;;;6.70;;
43994;SDS011;51687;52.160;5.298;2024-02-04T00:09:45;6.15;;;5.65;;
43994;SDS011;51687;52.160;5.298;2024-02-04T00:12:12;8.30;;;6.65;;
43994;SDS011;51687;52.160;5.298;2024-02-04T00:14:39;15.07;;;7.60;;
43994;SDS011;51687;52.160;5.298;2024-02-04T00:17:07;11.40;;;7.85;;
43994;SDS011;51687;52.160;5.298;2024-02-04T00:19:34;20.13;;;9.70;;
43994;SDS011;51687;52.160;5.298;2024-02-04T00:22:01;16.13;;;8.50;;
43994;SDS011;51687;52.160;5.298;2024-02-04T00:24:28;16.00;;;7.93;;
43994;SDS011;51687;52.160;5.298;2024-02-04T00:26:55;17.10;;;9.05;;
43994;SDS011;51687;52.160;5.298;2024-02-04T00:29:22;14.52;;;9.55;;
43994;SDS011;51687;52.160;5.298;2024-02-04T00:31:49;11.55;;;7.90;;
43994;SDS011;51687;52.160;5.298;2024-02-04T00:34:15;13.57;;;8.18;;
43994;SDS011;51687;52.160;5.298;2024-02-04T00:36:42;15.52;;;9.05;;
43994;SDS011;51687;52.160;5.298;2024-02-04T00:39:09;16.67;;;9.20;;
43994;SDS011;51687;52.160;5.298;2024-02-04T00:41:37;16.60;;;10.10;;
43994;SDS011;51687;52.160;5.298;2024-02-04T00:44:04;21.00;;;10.90;;
43994;SDS011;51687;52.160;5.298;2024-02-04T00:46:31;25.95;;;12.57;;
43994;SDS011;51687;52.160;5.298;2024-02-04T00:48:57;24.75;;;12.68;;
43994;SDS011;51687;52.160;5.298;2024-02-04T00:51:25;35.60;;;17.17;;
43994;SDS011;51687;52.160;5.298;2024-02-04T00:53:51;36.90;;;15.93;;
43994;SDS011;51687;52.160;5.298;2024-02-04T00:56:19;42.20;;;16.27;;
43994;SDS011;51687;52.160;5.298;2024-02-04T00:58:45;41.53;;;16.65;;
43994;SDS011;51687;52.160;5.298;2024-02-04T01:01:13;36.92;;;17.55;;
43994;SDS011;51687;52.160;5.298;2024-02-04T01:03:40;45.88;;;17.80;;
43994;SDS011;51687;52.160;5.298;2024-02-04T01:06:08;33.03;;;17.13;;
43994;SDS011;51687;52.160;5.298;2024-02-04T01:08:35;41.70;;;17.53;;
43994;SDS011;51687;52.160;5.298;2024-02-04T01:11:04;34.25;;;17.23;;
43994;SDS011;51687;52.160;5.298;2024-02-04T01:13:32;31.38;;;16.08;;
43994;SDS011;51687;52.160;5.298;2024-02-04T01:15:59;38.72;;;16.15;;
43994;SDS011;51687;52.160;5.298;2024-02-04T01:18:25;33.85;;;16.58;;
43994;SDS011;51687;52.160;5.298;2024-02-04T01:20:52;40.33;;;16.45;;
43994;SDS011;51687;52.160;5.298;2024-02-04T01:23:19;37.67;;;16.02;;
43994;SDS011;51687;52.160;5.298;2024-02-04T01:25:46;36.63;;;16.50;;
43994;SDS011;51687;52.160;5.298;2024-02-04T01:28:13;35.08;;;17.58;;
43994;SDS011;51687;52.160;5.298;2024-02-04T01:30:40;40.33;;;15.98;;
43994;SDS011;51687;52.160;5.298;2024-02-04T01:33:07;32.47;;;14.50;;
43994;SDS011;51687;52.160;5.298;2024-02-04T01:35:34;21.38;;;14.20;;
43994;SDS011;51687;52.160;5.298;2024-02-04T01:38:01;28.33;;;13.27;;
43994;SDS011;51687;52.160;5.298;2024-02-04T01:40:27;30.70;;;13.85;;
43994;SDS011;51687;52.160;5.298;2024-02-04T01:42:54;28.70;;;13.80;;
43994;SDS011;51687;52.160;5.298;2024-02-04T01:45:22;29.10;;;13.85;;
43994;SDS011;51687;52.160;5.298;2024-02-04T01:47:51;30.92;;;13.68;;
43994;SDS011;51687;52.160;5.298;2024-02-04T01:50:19;32.22;;;13.18;;
43994;SDS011;51687;52.160;5.298;2024-02-04T01:52:47;29.60;;;13.97;;
43994;SDS011;51687;52.160;5.298;2024-02-04T01:55:14;25.25;;;12.77;;
43994;SDS011;51687;52.160;5.298;2024-02-04T01:57:41;32.22;;;13.52;;
43994;SDS011;51687;52.160;5.298;2024-02-04T02:00:09;22.92;;;13.30;;
43994;SDS011;51687;52.160;5.298;2024-02-04T02:02:39;25.58;;;13.93;;
43994;SDS011;51687;52.160;5.298;2024-02-04T02:05:07;27.95;;;13.15;;
43994;SDS011;51687;52.160;5.298;2024-02-04T02:07:35;22.67;;;13.43;;
43994;SDS011;51687;52.160;5.298;2024-02-04T02:10:02;30.17;;;13.50;;
43994;SDS011;51687;52.160;5.298;2024-02-04T02:12:35;24.38;;;12.75;;
43994;SDS011;51687;52.160;5.298;2024-02-04T02:15:11;25.80;;;11.52;;
43994;SDS011;51687;52.160;5.298;2024-02-04T02:17:44;22.45;;;11.43;;
43994;SDS011;51687;52.160;5.298;2024-02-04T02:20:19;23.48;;;11.25;;
43994;SDS011;51687;52.160;5.298;2024-02-04T02:25:36;21.08;;;10.20;;
43994;SDS011;51687;52.160;5.298;2024-02-04T02:28:04;18.15;;;9.30;;
43994;SDS011;51687;52.160;5.298;2024-02-04T02:30:31;12.82;;;9.20;;
43994;SDS011;51687;52.160;5.298;2024-02-04T02:32:58;17.08;;;9.63;;
43994;SDS011;51687;52.160;5.298;2024-02-04T02:35:25;28.17;;;10.10;;
43994;SDS011;51687;52.160;5.298;2024-02-04T02:37:55;14.27;;;8.98;;
43994;SDS011;51687;52.160;5.298;2024-02-04T02:40:32;22.85;;;8.85;;
43994;SDS011;51687;52.160;5.298;2024-02-04T02:43:06;15.75;;;8.82;;
43994;SDS011;51687;52.160;5.298;2024-02-04T02:45:36;17.42;;;8.82;;
43994;SDS011;51687;52.160;5.298;2024-02-04T02:48:05;17.92;;;8.90;;
43994;SDS011;51687;52.160;5.298;2024-02-04T02:50:38;20.38;;;9.25;;
43994;SDS011;51687;52.160;5.298;2024-02-04T02:53:11;15.88;;;8.75;;
43994;SDS011;51687;52.160;5.298;2024-02-04T02:55:37;19.30;;;9.60;;
43994;SDS011;51687;52.160;5.298;2024-02-04T02:58:04;21.38;;;9.68;;
43994;SDS011;51687;52.160;5.298;2024-02-04T03:00:31;28.30;;;12.05;;
43994;SDS011;51687;52.160;5.298;2024-02-04T03:02:58;27.55;;;12.55;;
43994;SDS011;51687;52.160;5.298;2024-02-04T03:05:25;29.02;;;14.23;;
43994;SDS011;51687;52.160;5.298;2024-02-04T03:07:52;37.85;;;15.85;;
43994;SDS011;51687;52.160;5.298;2024-02-04T03:10:19;32.78;;;15.65;;
43994;SDS011;51687;52.160;5.298;2024-02-04T03:12:45;34.47;;;16.60;;
43994;SDS011;51687;52.160;5.298;2024-02-04T03:15:12;27.67;;;15.70;;
43994;SDS011;51687;52.160;5.298;2024-02-04T03:17:39;38.85;;;16.38;;
43994;SDS011;51687;52.160;5.298;2024-02-04T03:20:06;31.20;;;15.20;;
43994;SDS011;51687;52.160;5.298;2024-02-04T03:22:33;30.98;;;14.55;;
43994;SDS011;51687;52.160;5.298;2024-02-04T03:25:00;22.77;;;13.10;;
43994;SDS011;51687;52.160;5.298;2024-02-04T03:27:29;22.60;;;11.35;;
43994;SDS011;51687;52.160;5.298;2024-02-04T03:29:56;24.88;;;11.40;;
43994;SDS011;51687;52.160;5.298;2024-02-04T03:32:22;23.55;;;9.25;;
43994;SDS011;51687;52.160;5.298;2024-02-04T03:34:49;16.05;;;8.55;;
43994;SDS011;51687;52.160;5.298;2024-02-04T03:37:16;17.70;;;6.95;;
43994;SDS011;51687;52.160;5.298;2024-02-04T03:39:45;14.75;;;6.90;;
43994;SDS011;51687;52.160;5.298;2024-02-04T03:42:12;13.48;;;6.82;;
43994;SDS011;51687;52.160;5.298;2024-02-04T03:44:38;21.55;;;5.75;;
43994;SDS011;51687;52.160;5.298;2024-02-04T03:47:05;12.38;;;5.20;;
43994;SDS011;51687;52.160;5.298;2024-02-04T03:49:32;16.67;;;5.18;;
43994;SDS011;51687;52.160;5.298;2024-02-04T03:51:59;10.82;;;4.53;;
43994;SDS011;51687;52.160;5.298;2024-02-04T03:54:26;12.60;;;3.88;;
43994;SDS011;51687;52.160;5.298;2024-02-04T03:56:53;13.98;;;3.75;;
43994;SDS011;51687;52.160;5.298;2024-02-04T03:59:20;12.95;;;3.58;;
43994;SDS011;51687;52.160;5.298;2024-02-04T04:01:50;14.45;;;4.10;;
43994;SDS011;51687;52.160;5.298;2024-02-04T04:04:19;11.23;;;3.45;;
43994;SDS011;51687;52.160;5.298;2024-02-04T04:06:46;11.32;;;4.18;;
43994;SDS011;51687;52.160;5.298;2024-02-04T04:09:14;16.30;;;5.32;;
43994;SDS011;51687;52.160;5.298;2024-02-04T04:11:41;13.70;;;4.72;;
43994;SDS011;51687;52.160;5.298;2024-02-04T04:14:08;14.35;;;5.07;;
43994;SDS011;51687;52.160;5.298;2024-02-04T04:16:35;18.17;;;5.18;;
43994;SDS011;51687;52.160;5.298;2024-02-04T04:19:02;21.60;;;5.80;;
43994;SDS011;51687;52.160;5.298;2024-02-04T04:21:29;10.60;;;4.68;;
43994;SDS011;51687;52.160;5.298;2024-02-04T04:23:55;18.50;;;5.47;;
43994;SDS011;51687;52.160;5.298;2024-02-04T04:26:22;21.45;;;6.00;;
43994;SDS011;51687;52.160;5.298;2024-02-04T04:28:49;14.75;;;6.43;;
43994;SDS011;51687;52.160;5.298;2024-02-04T04:31:16;15.27;;;7.50;;
43994;SDS011;51687;52.160;5.298;2024-02-04T04:33:43;15.93;;;6.90;;
43994;SDS011;51687;52.160;5.298;2024-02-04T04:36:10;18.77;;;6.82;;
43994;SDS011;51687;52.160;5.298;2024-02-04T04:38:36;14.32;;;6.60;;
43994;SDS011;51687;52.160;5.298;2024-02-04T04:41:03;23.23;;;7.43;;
43994;SDS011;51687;52.160;5.298;2024-02-04T04:43:30;13.95;;;6.65;;
43994;SDS011;51687;52.160;5.298;2024-02-04T04:45:57;17.23;;;6.35;;
43994;SDS011;51687;52.160;5.298;2024-02-04T04:48:24;13.88;;;5.80;;
43994;SDS011;51687;52.160;5.298;2024-02-04T04:50:51;14.25;;;5.18;;
43994;SDS011;51687;52.160;5.298;2024-02-04T04:53:18;14.65;;;5.18;;
43994;SDS011;51687;52.160;5.298;2024-02-04T04:55:44;20.38;;;4.68;;
43994;SDS011;51687;52.160;5.298;2024-02-04T04:58:11;11.45;;;4.68;;
43994;SDS011;51687;52.160;5.298;2024-02-04T05:00:38;10.80;;;4.18;;
43994;SDS011;51687;52.160;5.298;2024-02-04T05:03:05;13.95;;;4.45;;
43994;SDS011;51687;52.160;5.298;2024-02-04T05:05:32;11.90;;;4.82;;
43994;SDS011;51687;52.160;5.298;2024-02-04T05:07:59;9.50;;;4.00;;
43994;SDS011;51687;52.160;5.298;2024-02-04T05:10:25;12.35;;;4.40;;
43994;SDS011;51687;52.160;5.298;2024-02-04T05:12:52;12.88;;;4.18;;
43994;SDS011;51687;52.160;5.298;2024-02-04T05:15:19;15.05;;;4.05;;
43994;SDS011;51687;52.160;5.298;2024-02-04T05:17:47;10.48;;;4.70;;
43994;SDS011;51687;52.160;5.298;2024-02-04T05:20:14;18.13;;;5.45;;
43994;SDS011;51687;52.160;5.298;2024-02-04T05:22:42;16.35;;;5.30;;
43994;SDS011;51687;52.160;5.298;2024-02-04T05:25:09;21.73;;;5.17;;
43994;SDS011;51687;52.160;5.298;2024-02-04T05:27:36;16.55;;;5.90;;
43994;SDS011;51687;52.160;5.298;2024-02-04T05:30:07;17.38;;;6.60;;
43994;SDS011;51687;52.160;5.298;2024-02-04T05:32:35;16.05;;;6.30;;
43994;SDS011;51687;52.160;5.298;2024-02-04T05:35:02;20.30;;;7.38;;
43994;SDS011;51687;52.160;5.298;2024-02-04T05:37:29;16.90;;;7.55;;
43994;SDS011;51687;52.160;5.298;2024-02-04T05:39:56;18.65;;;7.93;;
43994;SDS011;51687;52.160;5.298;2024-02-04T05:42:23;18.48;;;8.30;;
43994;SDS011;51687;52.160;5.298;2024-02-04T05:44:50;17.48;;;8.10;;
43994;SDS011;51687;52.160;5.298;2024-02-04T05:47:17;20.75;;;7.85;;
43994;SDS011;51687;52.160;5.298;2024-02-04T05:49:44;14.93;;;7.57;;
43994;SDS011;51687;52.160;5.298;2024-02-04T05:52:11;17.33;;;7.93;;
43994;SDS011;51687;52.160;5.298;2024-02-04T05:54:38;16.60;;;6.90;;
43994;SDS011;51687;52.160;5.298;2024-02-04T05:57:06;16.40;;;8.15;;
43994;SDS011;51687;52.160;5.298;2024-02-04T05:59:33;16.10;;;7.75;;
43994;SDS011;51687;52.160;5.298;2024-02-04T06:02:01;16.98;;;7.00;;
43994;SDS011;51687;52.160;5.298;2024-02-04T06:04:28;10.40;;;6.20;;
43994;SDS011;51687;52.160;5.298;2024-02-04T06:06:56;11.32;;;6.88;;
43994;SDS011;51687;52.160;5.298;2024-02-04T06:09:24;15.52;;;7.10;;
43994;SDS011;51687;52.160;5.298;2024-02-04T06:11:51;18.05;;;7.05;;
43994;SDS011;51687;52.160;5.298;2024-02-04T06:14:17;16.27;;;7.22;;
43994;SDS011;51687;52.160;5.298;2024-02-04T06:16:44;14.52;;;7.28;;
43994;SDS011;51687;52.160;5.298;2024-02-04T06:19:11;13.68;;;7.65;;
43994;SDS011;51687;52.160;5.298;2024-02-04T06:21:39;16.80;;;8.30;;
43994;SDS011;51687;52.160;5.298;2024-02-04T06:24:06;16.75;;;8.82;;
43994;SDS011;51687;52.160;5.298;2024-02-04T06:26:36;15.30;;;9.88;;
43994;SDS011;51687;52.160;5.298;2024-02-04T06:29:04;17.08;;;10.40;;
43994;SDS011;51687;52.160;5.298;2024-02-04T06:31:31;17.40;;;11.60;;
43994;SDS011;51687;52.160;5.298;2024-02-04T06:33:58;18.58;;;13.32;;
43994;SDS011;51687;52.160;5.298;2024-02-04T06:36:25;22.10;;;12.75;;
43994;SDS011;51687;52.160;5.298;2024-02-04T06:38:52;20.85;;;14.18;;
43994;SDS011;51687;52.160;5.298;2024-02-04T06:41:19;33.95;;;15.00;;
43994;SDS011;51687;52.160;5.298;2024-02-04T06:43:45;25.73;;;17.38;;
43994;SDS011;51687;52.160;5.298;2024-02-04T06:46:12;28.13;;;17.98;;
43994;SDS011;51687;52.160;5.298;2024-02-04T06:48:39;32.03;;;20.40;;
43994;SDS011;51687;52.160;5.298;2024-02-04T06:51:06;32.63;;;20.27;;
43994;SDS011;51687;52.160;5.298;2024-02-04T06:53:33;37.08;;;20.55;;
43994;SDS011;51687;52.160;5.298;2024-02-04T06:56:00;48.38;;;23.13;;
43994;SDS011;51687;52.160;5.298;2024-02-04T06:58:27;30.70;;;19.73;;
43994;SDS011;51687;52.160;5.298;2024-02-04T07:00:54;29.40;;;17.60;;
43994;SDS011;51687;52.160;5.298;2024-02-04T07:03:21;28.35;;;16.92;;
43994;SDS011;51687;52.160;5.298;2024-02-04T07:05:48;26.83;;;19.73;;
43994;SDS011;51687;52.160;5.298;2024-02-04T07:08:15;29.42;;;19.48;;
43994;SDS011;51687;52.160;5.298;2024-02-04T07:10:43;29.40;;;18.40;;
43994;SDS011;51687;52.160;5.298;2024-02-04T07:13:11;24.75;;;18.17;;
43994;SDS011;51687;52.160;5.298;2024-02-04T07:15:38;34.58;;;17.15;;
43994;SDS011;51687;52.160;5.298;2024-02-04T07:18:06;26.77;;;16.05;;
43994;SDS011;51687;52.160;5.298;2024-02-04T07:20:34;27.90;;;17.58;;
43994;SDS011;51687;52.160;5.298;2024-02-04T07:23:00;20.00;;;14.95;;
43994;SDS011;51687;52.160;5.298;2024-02-04T07:25:27;25.60;;;16.20;;
43994;SDS011;51687;52.160;5.298;2024-02-04T07:27:54;18.30;;;16.23;;
43994;SDS011;51687;52.160;5.298;2024-02-04T07:30:22;30.92;;;16.25;;
43994;SDS011;51687;52.160;5.298;2024-02-04T07:32:49;19.83;;;14.95;;
43994;SDS011;51687;52.160;5.298;2024-02-04T07:35:17;23.65;;;15.98;;
43994;SDS011;51687;52.160;5.298;2024-02-04T07:37:43;18.73;;;14.98;;
43994;SDS011;51687;52.160;5.298;2024-02-04T07:40:16;16.75;;;13.25;;
43994;SDS011;51687;52.160;5.298;2024-02-04T07:42:43;22.00;;;13.38;;
43994;SDS011;51687;52.160;5.298;2024-02-04T07:45:10;21.75;;;12.80;;
43994;SDS011;51687;52.160;5.298;2024-02-04T07:47:37;19.90;;;11.95;;
43994;SDS011;51687;52.160;5.298;2024-02-04T07:50:04;18.73;;;11.45;;
43994;SDS011;51687;52.160;5.298;2024-02-04T07:52:31;19.20;;;11.57;;
43994;SDS011;51687;52.160;5.298;2024-02-04T07:54:59;25.70;;;11.60;;
43994;SDS011;51687;52.160;5.298;2024-02-04T07:57:26;17.95;;;10.45;;
43994;SDS011;51687;52.160;5.298;2024-02-04T07:59:53;17.38;;;8.50;;
43994;SDS011;51687;52.160;5.298;2024-02-04T08:02:20;11.32;;;8.30;;
43994;SDS011;51687;52.160;5.298;2024-02-04T08:04:46;10.55;;;6.63;;
43994;SDS011;51687;52.160;5.298;2024-02-04T08:07:13;10.48;;;5.93;;
43994;SDS011;51687;52.160;5.298;2024-02-04T08:09:41;9.45;;;6.28;;
43994;SDS011;51687;52.160;5.298;2024-02-04T08:12:08;8.45;;;4.70;;
43994;SDS011;51687;52.160;5.298;2024-02-04T08:14:35;9.23;;;3.70;;
43994;SDS011;51687;52.160;5.298;2024-02-04T08:17:02;5.57;;;3.25;;
43994;SDS011;51687;52.160;5.298;2024-02-04T08:19:29;5.03;;;3.33;;
43994;SDS011;51687;52.160;5.298;2024-02-04T08:21:56;7.72;;;3.00;;
43994;SDS011;51687;52.160;5.298;2024-02-04T08:24:24;5.53;;;3.53;;
43994;SDS011;51687;52.160;5.298;2024-02-04T08:26:51;9.18;;;3.15;;
43994;SDS011;51687;52.160;5.298;2024-02-04T08:29:17;7.38;;;2.75;;
43994;SDS011;51687;52.160;5.298;2024-02-04T08:31:44;8.80;;;3.08;;
43994;SDS011;51687;52.160;5.298;2024-02-04T08:34:11;8.15;;;2.58;;
43994;SDS011;51687;52.160;5.298;2024-02-04T08:36:38;4.07;;;2.42;;
43994;SDS011;51687;52.160;5.298;2024-02-04T08:39:05;5.85;;;2.80;;
43994;SDS011;51687;52.160;5.298;2024-02-04T08:41:32;5.43;;;3.15;;
43994;SDS011;51687;52.160;5.298;2024-02-04T08:43:58;9.30;;;3.63;;
43994;SDS011;51687;52.160;5.298;2024-02-04T08:46:29;5.90;;;3.22;;
43994;SDS011;51687;52.160;5.298;2024-02-04T08:48:56;7.53;;;4.75;;
43994;SDS011;51687;52.160;5.298;2024-02-04T08:51:23;7.50;;;3.83;;
43994;SDS011;51687;52.160;5.298;2024-02-04T08:53:51;9.48;;;4.75;;
43994;SDS011;51687;52.160;5.298;2024-02-04T08:56:18;8.52;;;5.78;;
43994;SDS011;51687;52.160;5.298;2024-02-04T08:58:45;11.23;;;5.35;;
43994;SDS011;51687;52.160;5.298;2024-02-04T09:01:12;12.60;;;5.60;;
43994;SDS011;51687;52.160;5.298;2024-02-04T09:03:42;10.52;;;5.25;;
43994;SDS011;51687;52.160;5.298;2024-02-04T09:06:09;10.00;;;6.10;;
43994;SDS011;51687;52.160;5.298;2024-02-04T09:08:36;8.98;;;6.03;;
43994;SDS011;51687;52.160;5.298;2024-02-04T09:11:03;8.90;;;5.68;;
43994;SDS011;51687;52.160;5.298;2024-02-04T09:13:30;7.97;;;5.00;;
43994;SDS011;51687;52.160;5.298;2024-02-04T09:15:58;10.00;;;5.83;;
43994;SDS011;51687;52.160;5.298;2024-02-04T09:18:25;10.40;;;4.75;;
43994;SDS011;51687;52.160;5.298;2024-02-04T09:20:52;8.27;;;5.60;;
43994;SDS011;51687;52.160;5.298;2024-02-04T09:23:20;8.98;;;3.97;;
43994;SDS011;51687;52.160;5.298;2024-02-04T09:25:46;7.65;;;3.72;;
43994;SDS011;51687;52.160;5.298;2024-02-04T09:28:13;5.55;;;3.33;;
43994;SDS011;51687;52.160;5.298;2024-02-04T09:30:40;6.35;;;3.28;;
43994;SDS011;51687;52.160;5.298;2024-02-04T09:33:07;4.25;;;2.80;;
43994;SDS011;51687;52.160;5.298;2024-02-04T09:35:37;6.18;;;3.15;;
43994;SDS011;51687;52.160;5.298;2024-02-04T09:38:04;5.32;;;2.72;;
43994;SDS011;51687;52.160;5.298;2024-02-04T09:40:35;6.97;;;2.70;;
43994;SDS011;51687;52.160;5.298;2024-02-04T09:43:02;7.05;;;2.88;;
43994;SDS011;51687;52.160;5.298;2024-02-04T09:45:31;6.05;;;2.90;;
43994;SDS011;51687;52.160;5.298;2024-02-04T09:47:58;5.72;;;2.33;;
43994;SDS011;51687;52.160;5.298;2024-02-04T09:50:27;6.50;;;2.92;;
43994;SDS011;51687;52.160;5.298;2024-02-04T09:52:55;7.68;;;2.40;;
43994;SDS011;51687;52.160;5.298;2024-02-04T09:55:26;3.33;;;2.20;;
43994;SDS011;51687;52.160;5.298;2024-02-04T09:57:55;4.95;;;2.10;;
43994;SDS011;51687;52.160;5.298;2024-02-04T10:00:22;6.70;;;2.00;;
43994;SDS011;51687;52.160;5.298;2024-02-04T10:02:53;4.03;;;1.80;;
43994;SDS011;51687;52.160;5.298;2024-02-04T10:05:21;3.65;;;1.80;;
43994;SDS011;51687;52.160;5.298;2024-02-04T10:07:49;4.53;;;1.75;;
43994;SDS011;51687;52.160;5.298;2024-02-04T10:10:16;3.08;;;1.67;;
43994;SDS011;51687;52.160;5.298;2024-02-04T10:12:43;3.47;;;1.55;;
43994;SDS011;51687;52.160;5.298;2024-02-04T10:15:10;7.38;;;1.38;;
43994;SDS011;51687;52.160;5.298;2024-02-04T10:17:45;6.03;;;1.35;;
43994;SDS011;51687;52.160;5.298;2024-02-04T10:20:12;2.80;;;1.10;;
43994;SDS011;51687;52.160;5.298;2024-02-04T10:22:43;4.18;;;1.70;;
43994;SDS011;51687;52.160;5.298;2024-02-04T10:25:10;4.13;;;1.40;;
43994;SDS011;51687;52.160;5.298;2024-02-04T10:27:42;5.68;;;1.50;;
43994;SDS011;51687;52.160;5.298;2024-02-04T10:30:12;2.47;;;1.17;;
43994;SDS011;51687;52.160;5.298;2024-02-04T10:32:44;4.00;;;1.88;;
43994;SDS011;51687;52.160;5.298;2024-02-04T10:35:12;3.47;;;1.17;;
43994;SDS011;51687;52.160;5.298;2024-02-04T10:37:38;3.15;;;1.20;;
43994;SDS011;51687;52.160;5.298;2024-02-04T10:40:05;3.25;;;1.10;;
43994;SDS011;51687;52.160;5.298;2024-02-04T10:42:34;6.22;;;1.50;;
43994;SDS011;51687;52.160;5.298;2024-02-04T10:45:01;4.72;;;1.10;;
43994;SDS011;51687;52.160;5.298;2024-02-04T10:47:31;2.90;;;1.13;;
43994;SDS011;51687;52.160;5.298;2024-02-04T10:50:00;2.75;;;1.10;;
43994;SDS011;51687;52.160;5.298;2024-02-04T10:52:32;2.80;;;1.10;;
43994;SDS011;51687;52.160;5.298;2024-02-04T10:55:06;2.60;;;0.80;;
43994;SDS011;51687;52.160;5.298;2024-02-04T10:57:35;3.65;;;1.10;;
43994;SDS011;51687;52.160;5.298;2024-02-04T11:00:03;2.53;;;0.80;;
43994;SDS011;51687;52.160;5.298;2024-02-04T11:02:34;2.83;;;1.10;;
43994;SDS011;51687;52.160;5.298;2024-02-04T11:07:34;2.28;;;1.10;;
43994;SDS011;51687;52.160;5.298;2024-02-04T11:10:01;5.03;;;1.15;;
43994;SDS011;51687;52.160;5.298;2024-02-04T11:12:29;3.70;;;0.97;;
43994;SDS011;51687;52.160;5.298;2024-02-04T11:15:05;3.20;;;1.50;;
43994;SDS011;51687;52.160;5.298;2024-02-04T11:26:05;3.00;;;1.57;;
43994;SDS011;51687;52.160;5.298;2024-02-04T11:28:34;3.63;;;1.42;;
43994;SDS011;51687;52.160;5.298;2024-02-04T11:31:03;3.70;;;1.70;;
43994;SDS011;51687;52.160;5.298;2024-02-04T11:33:31;5.22;;;2.10;;
43994;SDS011;51687;52.160;5.298;2024-02-04T11:35:59;5.55;;;2.25;;
43994;SDS011;51687;52.160;5.298;2024-02-04T11:38:38;4.85;;;2.58;;
43994;SDS011;51687;52.160;5.298;2024-02-04T11:41:06;6.78;;;2.75;;
43994;SDS011;51687;52.160;5.298;2024-02-04T11:43:38;6.20;;;3.00;;
43994;SDS011;51687;52.160;5.298;2024-02-04T11:46:05;7.90;;;3.08;;
43994;SDS011;51687;52.160;5.298;2024-02-04T11:48:33;8.93;;;2.78;;
43994;SDS011;51687;52.160;5.298;2024-02-04T11:53:32;6.22;;;3.35;;
43994;SDS011;51687;52.160;5.298;2024-02-04T11:56:02;7.28;;;3.05;;
43994;SDS011;51687;52.160;5.298;2024-02-04T11:58:30;11.40;;;3.58;;
43994;SDS011;51687;52.160;5.298;2024-02-04T12:00:58;10.20;;;3.65;;
43994;SDS011;51687;52.160;5.298;2024-02-04T12:03:32;11.18;;;3.63;;
43994;SDS011;51687;52.160;5.298;2024-02-04T12:06:00;11.02;;;4.05;;
43994;SDS011;51687;52.160;5.298;2024-02-04T12:08:29;10.82;;;4.90;;
43994;SDS011;51687;52.160;5.298;2024-02-04T12:10:59;10.27;;;3.17;;
43994;SDS011;51687;52.160;5.298;2024-02-04T12:13:27;7.55;;;3.47;;
43994;SDS011;51687;52.160;5.298;2024-02-04T12:15:55;6.85;;;2.45;;
43994;SDS011;51687;52.160;5.298;2024-02-04T12:18:21;10.18;;;1.92;;
43994;SDS011;51687;52.160;5.298;2024-02-04T12:20:49;7.82;;;2.45;;
43994;SDS011;51687;52.160;5.298;2024-02-04T12:23:17;7.57;;;2.40;;
43994;SDS011;51687;52.160;5.298;2024-02-04T12:25:49;7.78;;;2.50;;
43994;SDS011;51687;52.160;5.298;2024-02-04T12:28:16;7.22;;;2.00;;
43994;SDS011;51687;52.160;5.298;2024-02-04T12:30:52;8.48;;;2.83;;
43994;SDS011;51687;52.160;5.298;2024-02-04T12:33:21;9.27;;;2.35;;
43994;SDS011;51687;52.160;5.298;2024-02-04T12:35:49;7.22;;;2.20;;
43994;SDS011;51687;52.160;5.298;2024-02-04T12:38:18;10.40;;;2.50;;
43994;SDS011;51687;52.160;5.298;2024-02-04T12:40:46;6.57;;;2.25;;
43994;SDS011;51687;52.160;5.298;2024-02-04T12:43:13;12.05;;;2.40;;
43994;SDS011;51687;52.160;5.298;2024-02-04T12:45:40;8.88;;;3.35;;
43994;SDS011;51687;52.160;5.298;2024-02-04T12:48:08;8.38;;;2.60;;
43994;SDS011;51687;52.160;5.298;2024-02-04T12:50:38;7.60;;;2.47;;
43994;SDS011;51687;52.160;5.298;2024-02-04T12:53:05;6.28;;;2.35;;
43994;SDS011;51687;52.160;5.298;2024-02-04T12:58:07;13.68;;;2.75;;
43994;SDS011;51687;52.160;5.298;2024-02-04T13:00:46;8.20;;;2.70;;
43994;SDS011;51687;52.160;5.298;2024-02-04T13:03:14;7.97;;;2.00;;
43994;SDS011;51687;52.160;5.298;2024-02-04T13:08:08;6.97;;;2.22;;
43994;SDS011;51687;52.160;5.298;2024-02-04T13:10:36;12.07;;;2.88;;
43994;SDS011;51687;52.160;5.298;2024-02-04T13:13:03;7.72;;;1.88;;
43994;SDS011;51687;52.160;5.298;2024-02-04T13:15:39;7.82;;;2.38;;
43994;SDS011;51687;52.160;5.298;2024-02-04T13:18:07;6.72;;;2.00;;
43994;SDS011;51687;52.160;5.298;2024-02-04T13:20:37;6.63;;;2.03;;
43994;SDS011;51687;52.160;5.298;2024-02-04T13:23:04;4.65;;;1.55;;
43994;SDS011;51687;52.160;5.298;2024-02-04T13:25:32;12.82;;;2.20;;
43994;SDS011;51687;52.160;5.298;2024-02-04T13:28:00;7.37;;;1.80;;
43994;SDS011;51687;52.160;5.298;2024-02-04T13:30:27;5.63;;;2.38;;
43994;SDS011;51687;52.160;5.298;2024-02-04T13:32:54;7.07;;;2.20;;
43994;SDS011;51687;52.160;5.298;2024-02-04T13:37:50;5.70;;;1.90;;
43994;SDS011;51687;52.160;5.298;2024-02-04T13:40:20;10.03;;;2.80;;
43994;SDS011;51687;52.160;5.298;2024-02-04T13:42:47;7.90;;;2.00;;
43994;SDS011;51687;52.160;5.298;2024-02-04T13:45:15;5.97;;;1.77;;
43994;SDS011;51687;52.160;5.298;2024-02-04T13:47:43;3.58;;;1.58;;
43994;SDS011;51687;52.160;5.298;2024-02-04T13:50:11;4.93;;;1.63;;
43994;SDS011;51687;52.160;5.298;2024-02-04T13:52:39;6.55;;;1.67;;
43994;SDS011;51687;52.160;5.298;2024-02-04T13:55:06;4.72;;;1.77;;
43994;SDS011;51687;52.160;5.298;2024-02-04T13:57:34;8.57;;;2.10;;
43994;SDS011;51687;52.160;5.298;2024-02-04T14:00:02;7.72;;;2.10;;
43994;SDS011;51687;52.160;5.298;2024-02-04T14:02:31;6.50;;;1.77;;
43994;SDS011;51687;52.160;5.298;2024-02-04T14:04:59;6.72;;;1.65;;
43994;SDS011;51687;52.160;5.298;2024-02-04T14:07:27;5.90;;;1.67;;
43994;SDS011;51687;52.160;5.298;2024-02-04T14:09:54;5.75;;;1.55;;
43994;SDS011;51687;52.160;5.298;2024-02-04T14:12:22;9.00;;;2.13;;
43994;SDS011;51687;52.160;5.298;2024-02-04T14:14:50;8.88;;;2.47;;
43994;SDS011;51687;52.160;5.298;2024-02-04T14:17:17;11.48;;;2.95;;
43994;SDS011;51687;52.160;5.298;2024-02-04T14:19:44;7.30;;;2.83;;
43994;SDS011;51687;52.160;5.298;2024-02-04T14:22:15;10.00;;;3.00;;
43994;SDS011;51687;52.160;5.298;2024-02-04T14:27:12;10.82;;;3.33;;
43994;SDS011;51687;52.160;5.298;2024-02-04T14:29:39;12.60;;;3.22;;
43994;SDS011;51687;52.160;5.298;2024-02-04T14:32:07;8.38;;;2.72;;
43994;SDS011;51687;52.160;5.298;2024-02-04T14:34:34;11.00;;;3.20;;
43994;SDS011;51687;52.160;5.298;2024-02-04T14:37:02;9.67;;;3.23;;
43994;SDS011;51687;52.160;5.298;2024-02-04T14:39:29;10.65;;;3.47;;
43994;SDS011;51687;52.160;5.298;2024-02-04T14:42:00;8.32;;;3.28;;
43994;SDS011;51687;52.160;5.298;2024-02-04T14:44:27;14.63;;;3.42;;
43994;SDS011;51687;52.160;5.298;2024-02-04T14:46:55;11.65;;;3.17;;
43994;SDS011;51687;52.160;5.298;2024-02-04T14:49:22;8.85;;;3.25;;
43994;SDS011;51687;52.160;5.298;2024-02-04T14:51:49;12.63;;;3.58;;
43994;SDS011;51687;52.160;5.298;2024-02-04T14:54:16;9.77;;;3.15;;
43994;SDS011;51687;52.160;5.298;2024-02-04T14:56:44;9.20;;;3.05;;
43994;SDS011;51687;52.160;5.298;2024-02-04T15:01:47;11.20;;;3.35;;
43994;SDS011;51687;52.160;5.298;2024-02-04T15:04:14;12.43;;;3.80;;
43994;SDS011;51687;52.160;5.298;2024-02-04T15:06:42;15.02;;;3.35;;
43994;SDS011;51687;52.160;5.298;2024-02-04T15:09:11;12.02;;;3.45;;
43994;SDS011;51687;52.160;5.298;2024-02-04T15:11:38;8.57;;;3.10;;